createdAt,value
2018-03-22T00:00:59.749Z,65.85
2018-03-22T00:02:00.215Z,65.82
2018-03-22T00:03:00.683Z,66.13
2018-03-22T00:04:01.151Z,66.13
2018-03-22T00:05:01.662Z,66.25
2018-03-22T00:06:02.090Z,66.31
2018-03-22T00:07:02.553Z,66.22
2018-03-22T00:08:03.020Z,66.49
2018-03-22T00:09:03.487Z,66.51
2018-03-22T00:10:03.955Z,66.35
2018-03-22T00:11:04.422Z,66.25
2018-03-22T00:12:04.891Z,66.30
2018-03-22T00:13:05.357Z,66.40
2018-03-22T00:14:05.824Z,66.43
2018-03-22T00:15:06.294Z,66.58
2018-03-22T00:16:06.758Z,66.58
2018-03-22T00:17:07.228Z,66.65
2018-03-22T00:18:07.695Z,66.52
2018-03-22T00:19:08.163Z,66.94
2018-03-22T00:20:08.631Z,66.86
2018-03-22T00:21:09.098Z,67.09
2018-03-22T00:22:09.563Z,67.09
2018-03-22T00:23:10.032Z,67.14
2018-03-22T00:24:10.498Z,67.08
2018-03-22T00:25:10.967Z,67.19
2018-03-22T00:26:11.433Z,67.37
2018-03-22T00:27:11.903Z,67.21
2018-03-22T00:28:12.369Z,67.06
2018-03-22T00:29:12.837Z,67.24
2018-03-22T00:30:13.303Z,67.08
2018-03-22T00:31:13.772Z,67.13
2018-03-22T00:32:14.239Z,67.10
2018-03-22T00:33:14.744Z,66.95
2018-03-22T00:34:15.220Z,66.90
2018-03-22T00:35:15.638Z,66.84
2018-03-22T00:36:16.107Z,66.89
2018-03-22T00:37:16.575Z,67.10
2018-03-22T00:38:17.040Z,67.12
2018-03-22T00:39:17.525Z,67.14
2018-03-22T00:40:17.976Z,67.04
2018-03-22T00:41:18.444Z,67.17
2018-03-22T00:42:18.909Z,67.19
2018-03-22T00:43:19.381Z,67.35
2018-03-22T00:44:20.098Z,67.47
2018-03-22T00:45:20.312Z,67.47
2018-03-22T00:46:20.783Z,67.60
2018-03-22T00:47:21.248Z,67.65
2018-03-22T00:48:21.713Z,67.93
2018-03-22T00:49:22.240Z,67.96
2018-03-22T00:50:22.647Z,68.16
2018-03-22T00:51:23.117Z,68.31
2018-03-22T00:52:23.582Z,68.11
2018-03-22T00:53:24.054Z,68.13
2018-03-22T00:54:24.518Z,67.96
2018-03-22T00:55:24.986Z,67.77
2018-03-22T00:56:25.456Z,67.95
2018-03-22T00:57:25.920Z,67.64
2018-03-22T00:58:26.385Z,67.72
2018-03-22T00:59:26.857Z,67.72
2018-03-22T01:00:27.320Z,67.79
2018-03-22T01:01:27.789Z,67.85
2018-03-22T01:02:28.255Z,67.85
2018-03-22T01:03:28.734Z,67.84
2018-03-22T01:04:29.189Z,67.84
2018-03-22T01:05:29.658Z,67.84
2018-03-22T01:06:30.128Z,68.05
2018-03-22T01:07:30.592Z,67.84
2018-03-22T01:08:31.060Z,67.94
2018-03-22T01:09:31.526Z,67.78
2018-03-22T01:10:31.991Z,67.76
2018-03-22T01:11:32.460Z,67.78
2018-03-22T01:12:32.937Z,67.91
2018-03-22T01:13:33.392Z,67.66
2018-03-22T01:14:33.913Z,67.81
2018-03-22T01:15:34.328Z,67.93
2018-03-22T01:16:34.794Z,67.78
2018-03-22T01:17:35.264Z,67.86
2018-03-22T01:18:35.728Z,68.06
2018-03-22T01:19:36.246Z,68.28
2018-03-22T01:20:36.662Z,68.51
2018-03-22T01:21:37.131Z,68.61
2018-03-22T01:22:37.596Z,68.56
2018-03-22T01:23:38.065Z,68.48
2018-03-22T01:24:38.532Z,68.69
2018-03-22T01:25:38.999Z,68.46
2018-03-22T01:26:39.466Z,68.48
2018-03-22T01:27:39.934Z,68.33
2018-03-22T01:28:40.400Z,68.33
2018-03-22T01:29:40.866Z,68.43
2018-03-22T01:30:41.334Z,68.73
2018-03-22T01:31:41.801Z,68.70
2018-03-22T01:32:42.268Z,68.75
2018-03-22T01:33:42.736Z,68.73
2018-03-22T01:34:43.202Z,68.88
2018-03-22T01:35:43.670Z,68.88
2018-03-22T01:36:44.136Z,68.98
2018-03-22T01:37:44.604Z,68.88
2018-03-22T01:38:45.069Z,68.72
2018-03-22T01:39:45.536Z,68.85
2018-03-22T01:40:46.004Z,69.07
2018-03-22T01:41:46.472Z,68.82
2018-03-22T01:42:46.938Z,68.92
2018-03-22T01:43:47.404Z,69.05
2018-03-22T01:44:47.872Z,68.72
2018-03-22T01:45:48.338Z,68.79
2018-03-22T01:46:48.805Z,68.95
2018-03-22T01:47:49.272Z,68.89
2018-03-22T01:48:49.738Z,68.84
2018-03-22T01:49:50.255Z,68.97
2018-03-22T01:50:50.674Z,68.89
2018-03-22T01:51:51.139Z,68.66
2018-03-22T01:52:51.606Z,68.99
2018-03-22T01:53:52.074Z,68.94
2018-03-22T01:54:52.540Z,68.89
2018-03-22T01:55:53.006Z,68.71
2018-03-22T01:56:53.472Z,68.83
2018-03-22T01:57:53.941Z,68.83
2018-03-22T01:58:54.407Z,68.76
2018-03-22T01:59:54.924Z,68.65
2018-03-22T02:00:55.347Z,68.86
2018-03-22T02:01:55.811Z,68.85
2018-03-22T02:02:56.275Z,68.85
2018-03-22T02:03:56.743Z,68.78
2018-03-22T02:04:57.208Z,68.93
2018-03-22T02:05:57.788Z,68.95
2018-03-22T02:06:58.143Z,68.95
2018-03-22T02:07:58.613Z,68.90
2018-03-22T02:08:59.074Z,69.07
2018-03-22T02:09:59.545Z,68.92
2018-03-22T02:11:00.009Z,68.72
2018-03-22T02:12:00.478Z,68.87
2018-03-22T02:13:00.947Z,68.95
2018-03-22T02:14:01.413Z,68.90
2018-03-22T02:15:01.927Z,69.05
2018-03-22T02:16:02.342Z,68.84
2018-03-22T02:17:02.810Z,68.84
2018-03-22T02:18:03.276Z,68.84
2018-03-22T02:19:03.742Z,68.84
2018-03-22T02:20:04.212Z,68.81
2018-03-22T02:21:04.677Z,68.84
2018-03-22T02:22:05.145Z,68.76
2018-03-22T02:23:05.609Z,68.76
2018-03-22T02:24:06.077Z,68.91
2018-03-22T02:25:06.542Z,69.01
2018-03-22T02:26:07.009Z,69.01
2018-03-22T02:27:07.476Z,68.98
2018-03-22T02:28:07.943Z,68.88
2018-03-22T02:29:08.409Z,68.91
2018-03-22T02:30:08.928Z,68.96
2018-03-22T02:31:09.343Z,69.03
2018-03-22T02:32:09.810Z,68.93
2018-03-22T02:33:10.279Z,68.95
2018-03-22T02:34:10.749Z,69.08
2018-03-22T02:35:11.210Z,68.95
2018-03-22T02:36:11.678Z,69.08
2018-03-22T02:37:12.144Z,69.15
2018-03-22T02:38:12.610Z,69.25
2018-03-22T02:39:13.076Z,69.28
2018-03-22T02:40:13.543Z,69.15
2018-03-22T02:41:14.010Z,69.15
2018-03-22T02:42:14.479Z,69.17
2018-03-22T02:43:14.944Z,69.07
2018-03-22T02:44:15.411Z,68.94
2018-03-22T02:45:15.896Z,68.97
2018-03-22T02:46:16.343Z,69.17
2018-03-22T02:47:16.810Z,69.19
2018-03-22T02:48:17.276Z,69.17
2018-03-22T02:49:17.744Z,69.21
2018-03-22T02:50:18.462Z,69.22
2018-03-22T02:51:18.676Z,69.19
2018-03-22T02:52:19.145Z,69.24
2018-03-22T02:53:19.610Z,69.26
2018-03-22T02:54:20.076Z,69.36
2018-03-22T02:55:20.547Z,69.49
2018-03-22T02:56:21.009Z,69.46
2018-03-22T02:57:21.478Z,69.51
2018-03-22T02:58:21.944Z,69.51
2018-03-22T02:59:22.413Z,69.56
2018-03-22T03:00:22.880Z,69.83
2018-03-22T03:01:23.345Z,69.73
2018-03-22T03:02:23.818Z,69.83
2018-03-22T03:03:24.330Z,69.88
2018-03-22T03:04:24.742Z,69.88
2018-03-22T03:06:25.733Z,69.55
2018-03-22T03:07:26.144Z,69.58
2018-03-22T03:08:26.621Z,69.55
2018-03-22T03:09:27.082Z,69.50
2018-03-22T03:10:27.554Z,69.55
2018-03-22T03:11:28.009Z,69.65
2018-03-22T03:12:28.482Z,69.62
2018-03-22T03:13:28.952Z,69.77
2018-03-22T03:14:29.422Z,69.69
2018-03-22T03:15:29.875Z,69.79
2018-03-22T03:16:30.396Z,69.99
2018-03-22T03:17:30.810Z,69.87
2018-03-22T03:18:31.282Z,69.89
2018-03-22T03:19:31.746Z,69.96
2018-03-22T03:20:32.215Z,69.94
2018-03-22T03:21:32.682Z,69.89
2018-03-22T03:22:33.148Z,70.06
2018-03-22T03:24:34.077Z,70.50
2018-03-22T03:25:34.546Z,70.60
2018-03-22T03:26:35.013Z,70.48
2018-03-22T03:27:35.488Z,70.67
2018-03-22T03:28:35.951Z,70.78
2018-03-22T03:29:36.408Z,70.72
2018-03-22T03:30:36.875Z,70.89
2018-03-22T03:31:37.341Z,70.97
2018-03-22T03:32:37.853Z,71.12
2018-03-22T03:33:38.280Z,71.11
2018-03-22T03:34:38.748Z,71.06
2018-03-22T03:35:39.206Z,71.16
2018-03-22T03:36:39.679Z,71.38
2018-03-22T03:37:40.146Z,71.24
2018-03-22T03:39:41.078Z,71.55
2018-03-22T03:40:41.549Z,71.72
2018-03-22T03:41:42.065Z,71.75
2018-03-22T03:42:42.477Z,71.82
2018-03-22T03:43:42.944Z,71.85
2018-03-22T03:44:43.414Z,71.89
2018-03-22T03:46:44.341Z,71.92
2018-03-22T03:47:44.811Z,71.97
2018-03-22T03:48:45.278Z,72.09
2018-03-22T03:49:45.744Z,72.28
2018-03-22T03:50:46.213Z,72.14
2018-03-22T03:51:46.727Z,72.01
2018-03-22T03:52:47.144Z,72.11
2018-03-22T03:53:47.615Z,72.09
2018-03-22T03:54:48.077Z,72.21
2018-03-22T03:55:48.542Z,72.28
2018-03-22T03:56:49.004Z,72.28
2018-03-22T03:57:49.477Z,72.38
2018-03-22T03:58:49.943Z,72.67
2018-03-22T03:59:50.409Z,72.77
2018-03-22T04:00:50.876Z,72.74
2018-03-22T04:02:03.226Z,72.62
2018-03-22T04:02:51.810Z,72.72
2018-03-22T04:03:52.278Z,72.62
2018-03-22T04:04:52.743Z,72.65
2018-03-22T04:05:53.208Z,72.89
2018-03-22T04:07:05.210Z,72.84
2018-03-22T04:07:54.137Z,72.79
2018-03-22T04:08:54.610Z,72.77
2018-03-22T04:09:55.077Z,72.92
2018-03-22T04:10:55.540Z,72.99
2018-03-22T04:11:56.055Z,73.26
2018-03-22T04:12:56.474Z,73.21
2018-03-22T04:14:57.408Z,73.11
2018-03-22T04:15:57.871Z,72.77
2018-03-22T04:16:58.393Z,72.67
2018-03-22T04:17:58.809Z,72.84
2018-03-22T04:21:00.207Z,72.92
2018-03-22T04:22:00.676Z,72.89
2018-03-22T04:23:01.140Z,72.87
2018-03-22T04:24:01.607Z,72.89
2018-03-22T04:25:02.067Z,73.04
2018-03-22T04:27:15.249Z,73.18
2018-03-22T04:28:03.466Z,73.21
2018-03-22T04:30:04.405Z,73.35
2018-03-22T04:31:04.872Z,73.25
2018-03-22T04:32:05.387Z,73.26
2018-03-22T04:33:05.805Z,73.40
2018-03-22T04:34:06.271Z,73.43
2018-03-22T04:35:06.734Z,73.40
2018-03-22T04:36:07.203Z,73.47
2018-03-22T04:37:07.671Z,73.45
2018-03-22T04:38:08.139Z,73.45
2018-03-22T04:39:08.597Z,73.35
2018-03-22T04:40:09.069Z,73.33
2018-03-22T04:41:09.536Z,73.28
2018-03-22T04:42:09.997Z,73.40
2018-03-22T04:44:10.935Z,73.79
2018-03-22T04:45:11.402Z,73.81
2018-03-22T04:46:11.866Z,73.62
2018-03-22T04:47:12.335Z,73.72
2018-03-22T04:48:12.802Z,73.79
2018-03-22T04:49:13.268Z,73.74
2018-03-22T04:50:13.735Z,73.74
2018-03-22T04:51:14.201Z,73.65
2018-03-22T04:52:14.715Z,73.57
2018-03-22T04:53:15.134Z,73.50
2018-03-22T04:54:15.602Z,73.65
2018-03-22T04:55:16.067Z,73.77
2018-03-22T04:56:16.528Z,73.74
2018-03-22T04:57:16.998Z,73.74
2018-03-22T04:58:17.462Z,73.70
2018-03-22T04:59:17.969Z,73.82
2018-03-22T05:00:18.399Z,73.72
2018-03-22T05:01:18.859Z,73.62
2018-03-22T05:02:31.267Z,73.60
2018-03-22T05:03:19.798Z,73.84
2018-03-22T05:04:20.264Z,73.89
2018-03-22T05:06:21.197Z,73.99
2018-03-22T05:07:21.677Z,74.06
2018-03-22T05:08:22.126Z,74.08
2018-03-22T05:09:22.597Z,74.06
2018-03-22T05:10:23.066Z,74.08
2018-03-22T05:11:23.529Z,74.11
2018-03-22T05:12:35.278Z,74.06
2018-03-22T05:13:24.462Z,74.01
2018-03-22T05:15:25.397Z,73.95
2018-03-22T05:16:25.864Z,73.95
2018-03-22T05:17:26.338Z,74.00
2018-03-22T05:18:26.793Z,73.86
2018-03-22T05:19:27.263Z,73.69
2018-03-22T05:21:28.192Z,73.69
2018-03-22T05:22:28.662Z,73.75
2018-03-22T05:23:29.129Z,73.80
2018-03-22T05:24:29.596Z,73.83
2018-03-22T05:25:30.064Z,73.83
2018-03-22T05:26:30.531Z,73.79
2018-03-22T05:27:30.993Z,73.89
2018-03-22T05:28:31.463Z,73.85
2018-03-22T05:29:31.931Z,73.95
2018-03-22T05:30:32.397Z,74.00
2018-03-22T05:31:32.864Z,73.98
2018-03-22T05:32:45.263Z,73.99
2018-03-22T05:33:33.797Z,74.03
2018-03-22T05:34:34.265Z,74.06
2018-03-22T05:35:34.731Z,74.07
2018-03-22T05:36:35.197Z,74.03
2018-03-22T05:37:35.663Z,74.04
2018-03-22T05:38:36.130Z,74.09
2018-03-22T05:39:36.602Z,74.11
2018-03-22T05:40:37.064Z,74.19
2018-03-22T05:41:37.532Z,74.20
2018-03-22T05:42:38.000Z,74.21
2018-03-22T05:43:38.463Z,74.20
2018-03-22T05:45:39.400Z,74.23
2018-03-22T05:46:39.870Z,74.24
2018-03-22T05:47:40.387Z,74.38
2018-03-22T05:48:40.799Z,74.27
2018-03-22T05:49:41.271Z,74.26
2018-03-22T05:50:41.740Z,74.25
2018-03-22T05:51:42.221Z,74.25
2018-03-22T05:54:43.613Z,74.20
2018-03-22T05:55:44.078Z,74.14
2018-03-22T05:56:44.545Z,74.11
2018-03-22T05:57:56.303Z,74.10
2018-03-22T05:58:45.476Z,74.02
2018-03-22T05:59:45.948Z,73.94
2018-03-22T06:00:46.420Z,74.08
2018-03-22T06:01:46.883Z,73.91
2018-03-22T06:03:47.821Z,73.89
2018-03-22T06:04:48.299Z,73.89
2018-03-22T06:05:48.753Z,73.80
2018-03-22T06:06:49.225Z,73.80
2018-03-22T06:08:50.200Z,73.71
2018-03-22T06:09:50.635Z,73.68
2018-03-22T06:10:51.101Z,73.53
2018-03-22T06:11:51.565Z,73.52
2018-03-22T06:12:52.087Z,73.47
2018-03-22T06:13:52.505Z,73.39
2018-03-22T06:16:53.916Z,73.21
2018-03-22T06:17:54.382Z,73.21
2018-03-22T06:19:55.321Z,72.93
2018-03-22T06:20:55.791Z,72.85
2018-03-22T06:21:56.257Z,72.94
2018-03-22T06:22:56.729Z,72.83
2018-03-22T06:23:57.199Z,72.85
2018-03-22T06:25:58.143Z,72.84
2018-03-22T06:26:58.607Z,72.81
2018-03-22T06:27:59.380Z,72.52
2018-03-22T06:28:59.546Z,72.57
2018-03-22T06:30:00.020Z,72.61
2018-03-22T06:32:00.958Z,72.30
2018-03-22T06:33:01.477Z,72.47
2018-03-22T06:34:01.898Z,72.33
2018-03-22T06:35:02.368Z,72.27
2018-03-22T06:37:03.307Z,72.16
2018-03-22T06:39:04.247Z,71.94
2018-03-22T06:40:04.746Z,71.88
2018-03-22T06:42:05.660Z,71.63
2018-03-22T06:43:06.131Z,71.62
2018-03-22T06:45:18.349Z,71.28
2018-03-22T06:46:07.543Z,71.09
2018-03-22T06:47:08.013Z,70.87
2018-03-22T06:49:09.156Z,70.50
2018-03-22T06:50:09.474Z,70.21
2018-03-22T06:51:09.895Z,70.17
2018-03-22T06:52:10.366Z,69.85
2018-03-22T06:53:10.838Z,69.81
2018-03-22T06:55:11.830Z,69.59
2018-03-22T06:56:12.255Z,69.47
2018-03-22T06:57:12.717Z,69.31
2018-03-22T06:58:13.194Z,69.20
2018-03-22T06:59:13.661Z,69.05
2018-03-22T07:00:14.188Z,68.91
2018-03-22T07:01:14.610Z,68.87
2018-03-22T07:02:15.078Z,68.89
2018-03-22T07:03:15.557Z,68.51
2018-03-22T07:04:16.023Z,68.29
2018-03-22T07:05:16.490Z,68.33
2018-03-22T07:06:16.964Z,68.11
2018-03-22T07:07:17.440Z,67.84
2018-03-22T07:08:17.911Z,67.59
2018-03-22T07:09:18.378Z,67.65
2018-03-22T07:10:30.386Z,67.27
2018-03-22T07:11:19.326Z,67.16
2018-03-22T07:12:19.799Z,66.83
2018-03-22T07:13:20.272Z,66.84
2018-03-22T07:14:20.801Z,66.65
2018-03-22T07:15:21.262Z,66.36
2018-03-22T07:16:21.694Z,66.14
2018-03-22T07:17:22.158Z,66.15
2018-03-22T07:18:22.632Z,65.90
2018-03-22T07:19:23.105Z,65.62
2018-03-22T07:20:23.578Z,65.39
2018-03-22T07:21:24.048Z,65.29
2018-03-22T07:23:24.995Z,64.81
2018-03-22T07:24:25.469Z,64.52
2018-03-22T07:25:25.944Z,64.32
2018-03-22T07:26:26.414Z,64.22
2018-03-22T07:27:26.888Z,64.07
2018-03-22T07:29:27.833Z,63.90
2018-03-22T07:31:28.830Z,63.41
2018-03-22T07:32:29.266Z,63.26
2018-03-22T07:33:29.726Z,63.00
2018-03-22T07:34:30.203Z,62.73
2018-03-22T07:35:30.669Z,62.61
2018-03-22T07:36:31.450Z,62.62
2018-03-22T07:37:31.621Z,62.47
2018-03-22T07:38:32.099Z,62.04
2018-03-22T07:39:32.567Z,62.08
2018-03-22T07:40:33.042Z,61.95
2018-03-22T07:41:33.517Z,61.96
2018-03-22T07:42:33.989Z,61.66
2018-03-22T07:43:34.463Z,61.42
2018-03-22T07:44:34.938Z,61.27
2018-03-22T07:45:35.409Z,61.22
2018-03-22T07:46:35.939Z,61.12
2018-03-22T07:47:36.358Z,60.77
2018-03-22T07:48:36.828Z,60.81
2018-03-22T07:49:37.307Z,60.57
2018-03-22T07:50:37.784Z,60.47
2018-03-22T07:51:38.309Z,60.28
2018-03-22T07:52:38.753Z,60.24
2018-03-22T07:53:39.204Z,59.99
2018-03-22T07:54:39.680Z,59.86
2018-03-22T07:55:40.163Z,59.90
2018-03-22T07:57:41.106Z,59.90
2018-03-22T07:58:41.575Z,59.51
2018-03-22T07:59:42.054Z,59.72
2018-03-22T08:00:42.529Z,59.53
2018-03-22T08:01:43.301Z,59.46
2018-03-22T08:02:43.477Z,59.04
2018-03-22T08:03:43.955Z,59.08
2018-03-22T08:05:44.963Z,58.93
2018-03-22T08:06:45.429Z,58.80
2018-03-22T08:07:45.854Z,58.70
2018-03-22T08:08:46.325Z,58.48
2018-03-22T08:09:46.804Z,58.55
2018-03-22T08:10:47.279Z,58.44
2018-03-22T08:11:47.754Z,58.20
2018-03-22T08:13:48.700Z,57.93
2018-03-22T08:14:49.182Z,57.91
2018-03-22T08:15:49.658Z,57.86
2018-03-22T08:16:50.183Z,57.64
2018-03-22T08:17:50.606Z,57.54
2018-03-22T08:18:51.084Z,57.55
2018-03-22T08:19:51.558Z,57.38
2018-03-22T08:21:52.505Z,57.03
2018-03-22T08:22:52.976Z,57.01
2018-03-22T08:24:53.929Z,57.06
2018-03-22T08:25:54.404Z,57.01
2018-03-22T08:26:54.876Z,56.93
2018-03-22T08:27:55.350Z,57.03
2018-03-22T08:28:55.821Z,56.75
2018-03-22T08:29:56.295Z,56.59
2018-03-22T08:32:57.709Z,56.62
2018-03-22T08:33:58.186Z,56.42
2018-03-22T08:34:58.659Z,56.29
2018-03-22T08:35:59.125Z,56.36
2018-03-22T08:36:59.601Z,56.25
2018-03-22T08:39:00.539Z,56.12
2018-03-22T08:40:01.015Z,56.13
2018-03-22T08:41:01.487Z,55.88
2018-03-22T08:42:01.956Z,55.77
2018-03-22T08:43:02.455Z,55.84
2018-03-22T08:44:02.903Z,55.70
2018-03-22T08:45:03.377Z,55.36
2018-03-22T08:46:03.848Z,55.37
2018-03-22T08:47:04.313Z,55.05
2018-03-22T08:49:05.259Z,54.86
2018-03-22T08:50:05.727Z,54.93
2018-03-22T08:51:06.199Z,54.74
2018-03-22T08:52:06.672Z,54.60
2018-03-22T08:53:07.146Z,54.37
2018-03-22T08:54:07.614Z,53.90
2018-03-22T08:55:08.083Z,53.88
2018-03-22T08:56:08.559Z,53.89
2018-03-22T08:57:09.034Z,53.70
2018-03-22T08:58:09.554Z,53.53
2018-03-22T08:59:09.974Z,53.09
2018-03-22T09:00:10.448Z,52.92
2018-03-22T09:01:10.920Z,52.75
2018-03-22T09:02:11.397Z,52.52
2018-03-22T09:03:11.917Z,52.26
2018-03-22T09:04:12.339Z,52.11
2018-03-22T09:05:12.812Z,51.76
2018-03-22T09:06:13.283Z,51.80
2018-03-22T09:07:13.759Z,51.42
2018-03-22T09:08:14.290Z,51.06
2018-03-22T09:09:14.703Z,50.98
2018-03-22T09:10:15.179Z,50.81
2018-03-22T09:11:15.652Z,50.39
2018-03-22T09:12:16.126Z,50.09
2018-03-22T09:13:16.650Z,49.95
2018-03-22T09:15:17.549Z,49.41
2018-03-22T09:16:18.022Z,49.02
2018-03-22T09:17:18.499Z,48.85
2018-03-22T09:18:19.017Z,48.61
2018-03-22T09:19:19.454Z,48.37
2018-03-22T09:20:19.923Z,48.13
2018-03-22T09:21:20.398Z,47.79
2018-03-22T09:22:20.872Z,47.84
2018-03-22T09:23:21.352Z,48.22
2018-03-22T09:24:21.824Z,47.60
2018-03-22T09:25:22.299Z,47.39
2018-03-22T09:26:22.773Z,47.63
2018-03-22T09:27:23.245Z,47.01
2018-03-22T09:28:23.718Z,46.80
2018-03-22T09:29:24.199Z,46.62
2018-03-22T09:30:24.674Z,46.53
2018-03-22T09:31:25.151Z,46.10
2018-03-22T09:33:26.103Z,45.93
2018-03-22T09:34:26.578Z,45.72
2018-03-22T09:35:27.052Z,45.57
2018-03-22T09:36:27.528Z,45.19
2018-03-22T09:37:28.001Z,44.89
2018-03-22T09:38:28.529Z,44.70
2018-03-22T09:39:28.958Z,44.77
2018-03-22T09:40:29.426Z,44.46
2018-03-22T09:41:29.909Z,44.28
2018-03-22T09:42:30.380Z,44.03
2018-03-22T09:44:31.331Z,43.47
2018-03-22T09:45:31.810Z,43.22
2018-03-22T09:46:32.278Z,43.06
2018-03-22T09:47:32.745Z,42.98
2018-03-22T09:48:33.277Z,42.43
2018-03-22T09:49:33.696Z,42.41
2018-03-22T09:51:34.652Z,41.87
2018-03-22T09:52:35.115Z,41.52
2018-03-22T09:53:35.641Z,41.33
2018-03-22T09:54:36.064Z,41.01
2018-03-22T09:55:36.536Z,40.75
2018-03-22T09:56:37.010Z,40.62
2018-03-22T09:57:37.481Z,40.43
2018-03-22T09:58:49.535Z,40.24
2018-03-22T09:59:38.426Z,40.05
2018-03-22T10:00:38.895Z,39.99
2018-03-22T10:01:39.375Z,39.60
2018-03-22T10:02:39.840Z,39.74
2018-03-22T10:03:40.317Z,39.41
2018-03-22T10:04:40.783Z,39.29
2018-03-22T10:05:41.257Z,39.06
2018-03-22T10:06:41.729Z,38.97
2018-03-22T10:07:42.204Z,38.98
2018-03-22T10:08:42.723Z,38.65
2018-03-22T10:10:43.619Z,38.36
2018-03-22T10:11:44.087Z,38.27
2018-03-22T10:12:44.562Z,38.34
2018-03-22T10:13:45.087Z,37.95
2018-03-22T10:15:45.977Z,37.76
2018-03-22T10:16:46.452Z,37.63
2018-03-22T10:17:46.926Z,37.50
2018-03-22T10:19:47.874Z,36.98
2018-03-22T10:20:48.347Z,36.82
2018-03-22T10:21:48.824Z,36.85
2018-03-22T10:22:49.295Z,37.03
2018-03-22T10:23:49.767Z,36.93
2018-03-22T10:24:50.288Z,36.73
2018-03-22T10:25:50.734Z,36.47
2018-03-22T10:26:51.189Z,36.61
2018-03-22T10:27:51.666Z,36.48
2018-03-22T10:29:52.663Z,35.82
2018-03-22T10:30:53.084Z,36.02
2018-03-22T10:32:54.038Z,35.43
2018-03-22T10:33:54.515Z,35.57
2018-03-22T10:34:54.986Z,34.93
2018-03-22T10:35:55.510Z,34.83
2018-03-22T10:36:55.940Z,34.70
2018-03-22T10:37:56.417Z,34.77
2018-03-22T10:38:56.893Z,34.80
2018-03-22T10:39:57.369Z,34.81
2018-03-22T10:42:58.796Z,34.31
2018-03-22T10:43:59.274Z,34.31
2018-03-22T10:46:00.274Z,34.21
2018-03-22T10:47:00.703Z,34.15
2018-03-22T10:48:01.182Z,34.32
2018-03-22T10:49:01.662Z,34.12
2018-03-22T10:50:02.129Z,34.12
2018-03-22T10:51:02.605Z,34.19
2018-03-22T10:52:03.084Z,34.19
2018-03-22T10:53:03.557Z,34.19
2018-03-22T10:57:05.451Z,34.06
2018-03-22T10:58:05.929Z,34.12
2018-03-22T10:59:06.405Z,34.06
2018-03-22T11:01:07.355Z,33.95
2018-03-22T11:02:08.029Z,33.99
2018-03-22T11:03:08.300Z,34.02
2018-03-22T11:04:08.775Z,34.05
2018-03-22T11:05:09.250Z,34.12
2018-03-22T11:06:09.728Z,34.11
2018-03-22T11:07:10.193Z,34.18
2018-03-22T11:08:10.669Z,34.18
2018-03-22T11:09:11.139Z,34.34
2018-03-22T11:10:11.613Z,34.27
2018-03-22T11:11:12.136Z,34.36
2018-03-22T11:12:12.557Z,34.43
2018-03-22T11:13:13.026Z,34.76
2018-03-22T11:14:13.503Z,34.89
2018-03-22T11:16:14.497Z,35.21
2018-03-22T11:17:14.920Z,35.34
2018-03-22T11:18:15.392Z,35.47
2018-03-22T11:19:15.862Z,35.73
2018-03-22T11:20:16.336Z,35.65
2018-03-22T11:21:16.858Z,35.85
2018-03-22T11:22:17.279Z,35.94
2018-03-22T11:24:18.224Z,36.42
2018-03-22T11:25:18.695Z,36.75
2018-03-22T11:26:19.219Z,36.88
2018-03-22T11:27:19.642Z,36.83
2018-03-22T11:29:20.587Z,37.25
2018-03-22T11:30:21.057Z,37.61
2018-03-22T11:31:33.625Z,37.66
2018-03-22T11:32:22.006Z,37.79
2018-03-22T11:33:22.480Z,37.88
2018-03-22T11:34:22.956Z,38.07
2018-03-22T11:35:23.432Z,38.16
2018-03-22T11:36:23.900Z,38.42
2018-03-22T11:37:24.382Z,38.54
2018-03-22T11:38:24.849Z,38.86
2018-03-22T11:39:25.327Z,38.95
2018-03-22T11:40:25.798Z,39.17
2018-03-22T11:41:26.322Z,39.20
2018-03-22T11:42:26.753Z,39.59
2018-03-22T11:43:27.220Z,39.74
2018-03-22T11:44:27.696Z,39.80
2018-03-22T11:45:28.171Z,39.99
2018-03-22T11:46:28.698Z,40.22
2018-03-22T11:47:29.116Z,40.24
2018-03-22T11:48:29.597Z,40.24
2018-03-22T11:49:30.079Z,40.40
2018-03-22T11:50:30.548Z,40.42
2018-03-22T11:52:31.506Z,41.06
2018-03-22T11:53:31.978Z,40.96
2018-03-22T11:54:32.460Z,41.35
2018-03-22T11:55:32.928Z,41.44
2018-03-22T11:56:33.456Z,41.66
2018-03-22T11:57:33.882Z,41.78
2018-03-22T11:58:34.357Z,41.94
2018-03-22T11:59:34.829Z,42.16
2018-03-22T12:00:35.307Z,42.54
2018-03-22T12:01:47.679Z,42.93
2018-03-22T12:02:36.255Z,42.53
2018-03-22T12:03:36.735Z,42.62
2018-03-22T12:04:37.205Z,42.62
2018-03-22T12:05:37.684Z,42.64
2018-03-22T12:06:38.163Z,43.38
2018-03-22T12:07:38.634Z,43.05
2018-03-22T12:08:39.109Z,42.89
2018-03-22T12:09:39.585Z,42.95
2018-03-22T12:10:40.061Z,43.39
2018-03-22T12:11:40.531Z,43.39
2018-03-22T12:12:41.006Z,43.61
2018-03-22T12:13:41.477Z,43.83
2018-03-22T12:14:41.953Z,43.95
2018-03-22T12:15:42.422Z,43.95
2018-03-22T12:17:43.372Z,44.10
2018-03-22T12:18:43.845Z,43.99
2018-03-22T12:20:44.786Z,44.40
2018-03-22T12:22:45.786Z,44.17
2018-03-22T12:23:46.206Z,44.51
2018-03-22T12:24:46.678Z,44.92
2018-03-22T12:26:47.624Z,44.69
2018-03-22T12:27:59.682Z,44.72
2018-03-22T12:28:48.567Z,44.97
2018-03-22T12:29:49.039Z,45.22
2018-03-22T12:30:49.520Z,45.37
2018-03-22T12:31:49.984Z,44.70
2018-03-22T12:32:50.505Z,45.40
2018-03-22T12:33:50.927Z,45.65
2018-03-22T12:34:51.398Z,45.61
2018-03-22T12:35:51.870Z,45.80
2018-03-22T12:36:52.344Z,45.79
2018-03-22T12:37:52.811Z,45.95
2018-03-22T12:38:53.287Z,46.10
2018-03-22T12:39:53.761Z,46.23
2018-03-22T12:40:54.233Z,46.22
2018-03-22T12:41:54.705Z,46.09
2018-03-22T12:43:55.702Z,46.43
2018-03-22T12:44:56.123Z,46.27
2018-03-22T12:45:56.634Z,46.30
2018-03-22T12:46:57.079Z,46.29
2018-03-22T12:47:57.546Z,46.57
2018-03-22T12:48:58.018Z,46.82
2018-03-22T12:49:58.489Z,46.97
2018-03-22T12:50:58.967Z,46.97
2018-03-22T12:51:59.442Z,47.21
2018-03-22T12:52:59.914Z,47.08
2018-03-22T12:54:00.442Z,47.14
2018-03-22T12:55:00.865Z,47.23
2018-03-22T12:57:01.814Z,47.41
2018-03-22T12:58:02.289Z,47.43
2018-03-22T12:59:02.764Z,47.56
2018-03-22T13:00:03.293Z,47.43
2018-03-22T13:01:03.714Z,47.46
2018-03-22T13:02:04.190Z,47.51
2018-03-22T13:03:04.666Z,47.60
2018-03-22T13:05:05.616Z,47.75
2018-03-22T13:07:06.571Z,47.77
2018-03-22T13:08:07.045Z,47.89
2018-03-22T13:09:07.570Z,47.89
2018-03-22T13:10:07.999Z,47.89
2018-03-22T13:11:08.474Z,47.94
2018-03-22T13:12:08.949Z,48.00
2018-03-22T13:13:09.421Z,48.06
2018-03-22T13:14:09.951Z,48.24
2018-03-22T13:15:10.375Z,48.33
2018-03-22T13:17:11.327Z,48.42
2018-03-22T13:18:11.804Z,48.42
2018-03-22T13:19:12.320Z,48.45
2018-03-22T13:21:13.225Z,48.35
2018-03-22T13:22:13.700Z,48.35
2018-03-22T13:23:14.177Z,48.34
2018-03-22T13:24:14.770Z,48.34
2018-03-22T13:25:15.128Z,48.40
2018-03-22T13:26:15.589Z,48.46
2018-03-22T13:27:16.067Z,48.51
2018-03-22T13:28:16.539Z,48.64
2018-03-22T13:29:17.058Z,48.64
2018-03-22T13:30:17.490Z,48.70
2018-03-22T13:31:17.953Z,48.57
2018-03-22T13:32:18.431Z,48.45
2018-03-22T13:33:18.903Z,48.35
2018-03-22T13:35:19.892Z,48.38
2018-03-22T13:36:20.317Z,48.50
2018-03-22T13:37:20.790Z,48.56
2018-03-22T13:38:21.262Z,48.49
2018-03-22T13:39:21.735Z,48.43
2018-03-22T13:40:22.205Z,48.46
2018-03-22T13:41:22.673Z,48.48
2018-03-22T13:42:23.148Z,48.54
2018-03-22T13:43:23.683Z,48.60
2018-03-22T13:44:24.092Z,48.72
2018-03-22T13:45:24.571Z,48.66
2018-03-22T13:46:25.036Z,48.72
2018-03-22T13:47:25.506Z,48.84
2018-03-22T13:48:25.979Z,48.89
2018-03-22T13:51:27.390Z,49.07
2018-03-22T13:52:27.872Z,49.12
2018-03-22T13:54:28.812Z,49.21
2018-03-22T13:56:29.756Z,49.39
2018-03-22T13:57:30.231Z,49.32
2018-03-22T13:58:30.698Z,49.44
2018-03-22T13:59:31.172Z,49.47
2018-03-22T14:01:32.125Z,49.53
2018-03-22T14:02:32.591Z,49.56
2018-03-22T14:03:33.070Z,49.58
2018-03-22T14:04:33.544Z,49.58
2018-03-22T14:05:34.070Z,49.61
2018-03-22T14:06:34.491Z,49.67
2018-03-22T14:07:34.965Z,49.70
2018-03-22T14:08:35.436Z,49.73
2018-03-22T14:09:35.914Z,49.76
2018-03-22T14:10:36.439Z,49.69
2018-03-22T14:12:37.393Z,49.75
2018-03-22T14:13:37.813Z,49.78
2018-03-22T14:14:38.288Z,49.80
2018-03-22T14:15:38.763Z,49.77
2018-03-22T14:16:39.236Z,49.80
2018-03-22T14:17:39.721Z,49.80